Time;durP1;ratioP1;P1;durP2;ratioP2;P2;SDS_P1;SDS_P2;PMS_P1;PMS_P2;Temp;Humidity;BMP_temperature;BMP_pressure;BME280_temperature;BME280_humidity;BME280_pressure;Samples;Min_cycle;Max_cycle;Signal;HPM_P1;HPM_P2
2022/12/27 00:00:34;;;;;;;7.73;4.83;;;;;;;3.32;100.00;100669.97;5102707;28;20482;-60
2022/12/27 00:03:01;;;;;;;14.97;5.27;;;;;;;3.34;100.00;100668.09;5103112;28;20467;-59
2022/12/27 00:05:28;;;;;;;10.80;4.23;;;;;;;3.36;99.74;100669.69;5102728;28;20467;-59
2022/12/27 00:07:55;;;;;;;6.93;4.27;;;;;;;3.35;99.29;100662.72;5102661;28;20439;-61
2022/12/27 00:10:24;;;;;;;10.93;4.40;;;;;;;3.39;99.17;100661.59;5102244;28;20435;-59
2022/12/27 00:12:52;;;;;;;8.77;4.30;;;;;;;3.35;100.00;100662.72;5094460;28;20455;-59
2022/12/27 00:15:19;;;;;;;12.30;3.87;;;;;;;3.44;99.89;100664.00;5103357;28;20444;-59
2022/12/27 00:17:45;;;;;;;11.10;4.20;;;;;;;3.47;99.55;100676.19;5102828;28;20470;-59
2022/12/27 00:20:12;;;;;;;14.40;4.60;;;;;;;3.41;99.72;100671.25;5102522;28;20455;-59
2022/12/27 00:22:39;;;;;;;10.07;3.37;;;;;;;3.30;99.88;100683.25;5102684;28;20470;-59
2022/12/27 00:25:07;;;;;;;13.90;3.27;;;;;;;3.38;100.00;100672.25;5102220;28;20452;-58
2022/12/27 00:27:35;;;;;;;9.67;3.80;;;;;;;3.40;100.00;100683.59;5102503;28;20462;-58
2022/12/27 00:30:02;;;;;;;8.47;3.90;;;;;;;3.46;100.00;100690.34;5103330;28;20439;-59
2022/12/27 00:32:29;;;;;;;9.53;3.90;;;;;;;3.47;100.00;100689.41;5102408;28;20475;-59
2022/12/27 00:34:55;;;;;;;7.07;3.27;;;;;;;3.42;100.00;100691.44;5102739;28;20464;-59
2022/12/27 00:37:22;;;;;;;5.30;3.47;;;;;;;3.45;99.77;100688.63;5095434;28;20487;-58
2022/12/27 00:39:49;;;;;;;9.60;3.20;;;;;;;3.49;99.03;100691.03;5088505;28;20507;-58
2022/12/27 00:42:16;;;;;;;7.50;3.40;;;;;;;3.52;98.91;100697.94;5081444;28;20472;-59
2022/12/27 00:44:44;;;;;;;6.57;3.13;;;;;;;3.70;98.78;100691.63;5082314;28;20506;-59
2022/12/27 00:47:11;;;;;;;11.00;4.13;;;;;;;3.69;98.31;100695.22;5081771;28;20476;-59
2022/12/27 00:49:38;;;;;;;12.13;4.00;;;;;;;3.73;97.95;100693.25;5081245;28;20496;-59
2022/12/27 00:52:05;;;;;;;7.83;4.10;;;;;;;3.72;97.80;100688.91;5068296;28;20510;-59
2022/12/27 00:54:32;;;;;;;6.13;3.23;;;;;;;3.79;97.79;100697.34;5082507;28;20444;-59
2022/12/27 00:56:59;;;;;;;7.27;3.17;;;;;;;3.60;97.58;100695.72;5080609;28;20591;-59
2022/12/27 00:59:26;;;;;;;5.70;3.77;;;;;;;3.68;97.30;100701.47;5082582;28;20484;-59
2022/12/27 01:01:54;;;;;;;8.50;3.00;;;;;;;3.64;97.40;100697.25;5080837;28;20484;-59
2022/12/27 01:04:21;;;;;;;4.83;3.27;;;;;;;3.51;97.53;100691.81;5081350;28;20491;-58
2022/12/27 01:06:48;;;;;;;10.43;3.40;;;;;;;3.54;97.78;100696.94;5081263;28;21016;-59
2022/12/27 01:09:14;;;;;;;7.20;3.60;;;;;;;3.68;97.33;100696.16;5082579;28;20470;-59
2022/12/27 01:11:42;;;;;;;5.30;2.43;;;;;;;3.60;98.00;100694.88;5080704;28;20476;-58
2022/12/27 01:14:09;;;;;;;7.30;2.93;;;;;;;3.70;97.50;100689.00;5082254;28;20444;-59
2022/12/27 01:16:37;;;;;;;4.50;2.93;;;;;;;3.63;97.49;100702.63;5080590;28;20484;-59
2022/12/27 01:19:05;;;;;;;8.43;2.60;;;;;;;3.53;98.11;100711.06;5081834;28;20473;-59
2022/12/27 01:21:32;;;;;;;7.90;2.90;;;;;;;3.56;98.17;100694.22;5081451;28;20476;-58
2022/12/27 01:23:58;;;;;;;7.40;2.80;;;;;;;3.57;97.86;100693.25;5080764;28;20464;-58
2022/12/27 01:26:25;;;;;;;7.93;3.10;;;;;;;3.63;97.75;100700.84;5080698;28;20484;-59
2022/12/27 01:28:53;;;;;;;8.00;3.30;;;;;;;3.57;97.85;100695.88;5081470;28;20436;-59
2022/12/27 01:31:21;;;;;;;6.87;3.00;;;;;;;3.67;97.07;100706.81;5080967;28;20495;-59
2022/12/27 01:33:48;;;;;;;9.97;2.97;;;;;;;3.71;97.06;100724.22;5058968;28;20496;-59
2022/12/27 01:36:19;;;;;;;4.10;2.83;;;;;;;3.62;97.88;100712.34;5081418;28;20507;-59
2022/12/27 01:38:46;;;;;;;4.67;2.83;;;;;;;3.63;97.66;100716.72;5086384;28;20498;-58
2022/12/27 01:43:59;;;;;;;8.03;3.30;;;;;;;3.58;97.93;100730.19;5101872;28;20453;-59
2022/12/27 01:46:26;;;;;;;10.83;3.13;;;;;;;3.50;98.58;100718.31;5101420;28;20472;-58
2022/12/27 01:48:53;;;;;;;8.37;3.30;;;;;;;3.54;98.37;100726.00;5100191;28;20455;-58
2022/12/27 01:51:22;;;;;;;7.70;4.83;;;;;;;3.53;98.27;100723.44;5100738;28;20479;-59
2022/12/27 01:53:50;;;;;;;9.83;3.10;;;;;;;3.61;98.35;100720.38;5101111;28;20475;-59
2022/12/27 01:56:19;;;;;;;10.43;3.00;;;;;;;3.58;98.51;100727.53;5095461;28;20509;-59
2022/12/27 01:58:48;;;;;;;6.60;3.17;;;;;;;3.51;98.71;100718.25;5101800;28;20463;-59
2022/12/27 02:01:17;;;;;;;8.10;2.43;;;;;;;3.58;99.00;100726.69;5100288;28;20483;-59
2022/12/27 02:03:47;;;;;;;6.90;3.27;;;;;;;3.36;99.63;100719.91;5100634;28;20452;-59
2022/12/27 02:06:14;;;;;;;6.07;3.60;;;;;;;3.49;99.52;100720.13;5101057;28;20479;-59
2022/12/27 02:08:49;;;;;;;6.93;2.90;;;;;;;3.51;99.76;100739.38;5100927;28;20444;-59
2022/12/27 02:11:17;;;;;;;8.90;3.63;;;;;;;3.42;100.00;100731.09;5100164;28;20500;-58
2022/12/27 02:13:45;;;;;;;5.80;3.60;;;;;;;3.46;100.00;100738.78;5100436;28;20453;-58
2022/12/27 02:16:13;;;;;;;8.23;3.57;;;;;;;3.49;99.91;100740.38;5100058;28;20483;-59
2022/12/27 02:18:40;;;;;;;4.97;3.23;;;;;;;3.50;100.00;100739.47;5101587;28;20952;-59
2022/12/27 02:21:27;;;;;;;9.90;4.00;;;;;;;3.53;99.74;100745.44;5099718;28;20482;-59
2022/12/27 02:24:15;;;;;;;6.83;3.33;;;;;;;3.43;100.00;100749.50;5099111;28;20457;-59
2022/12/27 02:26:52;;;;;;;4.47;3.47;;;;;;;3.35;100.00;100739.38;5079639;28;21209;-59
2022/12/27 02:29:34;;;;;;;9.47;3.60;;;;;;;3.45;100.00;100739.72;5101889;28;20881;-58
2022/12/27 02:32:05;;;;;;;9.43;3.90;;;;;;;3.31;100.00;100744.88;5099086;28;21084;-59
2022/12/27 02:34:37;;;;;;;14.73;3.80;;;;;;;3.44;100.00;100747.72;5100635;28;21087;-59
2022/12/27 02:37:08;;;;;;;7.93;3.97;;;;;;;3.37;100.00;100753.34;5100461;28;21006;-59
2022/12/27 02:39:38;;;;;;;13.07;4.77;;;;;;;3.46;100.00;100756.44;5099774;28;20491;-59
2022/12/27 02:53:10;;;;;;;10.73;4.30;;;;;;;3.26;100.00;100731.91;5100578;28;20451;-59
2022/12/27 02:58:55;;;;;;;10.53;3.90;;;;;;;3.29;100.00;100742.31;5082066;28;20479;-58
2022/12/27 03:04:26;;;;;;;7.13;3.90;;;;;;;3.29;100.00;100744.13;5024868;28;20455;-58
2022/12/27 03:07:04;;;;;;;11.00;4.10;;;;;;;3.28;100.00;100745.03;5099648;28;20482;-58
2022/12/27 03:18:28;;;;;;;9.40;5.70;;;;;;;3.33;100.00;100746.53;5097662;28;20483;-58
2022/12/27 03:26:25;;;;;;;8.00;4.83;;;;;;;3.45;100.00;100754.72;5100571;28;20474;-58
2022/12/27 03:34:34;;;;;;;12.43;5.60;;;;;;;3.37;100.00;100757.78;5104292;28;20493;-58
2022/12/27 03:39:53;;;;;;;9.80;5.70;;;;;;;3.33;100.00;100765.03;5100848;28;20997;-59
2022/12/27 03:45:09;;;;;;;11.43;6.10;;;;;;;3.29;100.00;100763.47;5103659;28;20450;-58
2022/12/27 03:47:37;;;;;;;16.83;6.30;;;;;;;3.37;100.00;100771.84;5104366;28;20448;-58
2022/12/27 03:50:09;;;;;;;9.60;5.20;;;;;;;3.34;100.00;100765.88;5102121;28;20450;-58
2022/12/27 03:52:38;;;;;;;9.10;5.10;;;;;;;3.35;100.00;100760.50;5102958;28;20459;-61
2022/12/27 03:55:05;;;;;;;6.47;4.73;;;;;;;3.44;100.00;100768.88;5104272;28;20450;-59
2022/12/27 03:57:32;;;;;;;16.23;6.10;;;;;;;3.50;100.00;100764.09;5102847;28;20495;-59
2022/12/27 03:59:59;;;;;;;13.70;5.53;;;;;;;3.39;100.00;100764.69;5102234;28;20496;-59
2022/12/27 04:02:26;;;;;;;12.97;5.83;;;;;;;3.53;100.00;100771.03;5103341;28;20474;-59
2022/12/27 04:04:53;;;;;;;16.47;6.80;;;;;;;3.54;100.00;100767.44;5103690;28;20466;-59
2022/12/27 04:07:21;;;;;;;6.93;6.27;;;;;;;3.53;100.00;100768.38;5101756;28;20508;-60
2022/12/27 04:34:45;;;;;;;9.43;7.37;;;;;;;3.81;100.00;100794.19;5103766;28;20451;-59
2022/12/27 04:37:13;;;;;;;10.40;6.77;;;;;;;3.70;100.00;100800.06;5101532;28;20483;-59
2022/12/27 04:54:55;;;;;;;8.20;7.40;;;;;;;3.67;100.00;100799.38;5101565;28;20533;-59
2022/12/27 04:56:11;;;;;;;18.13;7.80;;;;;;;3.92;100.00;100785.66;5073011;28;20485;-59
2022/12/27 05:02:01;;;;;;;12.33;8.80;;;;;;;3.81;100.00;100799.47;5103329;28;20478;-59
2022/12/27 05:04:09;;;;;;;14.60;10.30;;;;;;;3.78;100.00;100799.63;5101711;28;20529;-59
2022/12/27 05:06:36;;;;;;;16.33;9.20;;;;;;;3.75;100.00;100790.09;5101729;28;20479;-59
2022/12/27 05:14:40;;;;;;;12.47;8.80;;;;;;;3.67;100.00;100802.84;5098342;28;20456;-59
2022/12/27 05:17:07;;;;;;;10.63;8.30;;;;;;;3.64;100.00;100795.09;5101534;28;20475;-59
2022/12/27 05:19:34;;;;;;;13.13;10.10;;;;;;;3.71;100.00;100804.38;5101987;28;20476;-59
2022/12/27 05:27:30;;;;;;;11.77;10.07;;;;;;;3.76;100.00;100806.78;5101476;28;20840;-59
2022/12/27 05:29:57;;;;;;;16.53;10.37;;;;;;;3.79;100.00;100808.44;5101730;28;20436;-59
2022/12/27 05:32:24;;;;;;;20.60;11.37;;;;;;;3.83;100.00;100812.63;5100339;28;20486;-59
2022/12/27 05:34:50;;;;;;;14.60;11.13;;;;;;;3.87;100.00;100807.09;5102392;28;20458;-59
2022/12/27 05:37:17;;;;;;;14.97;11.57;;;;;;;3.81;100.00;100812.69;5100873;28;20483;-59
2022/12/27 05:39:44;;;;;;;13.57;10.07;;;;;;;3.85;100.00;100821.31;5100533;28;20495;-59
2022/12/27 05:42:10;;;;;;;13.80;10.60;;;;;;;3.83;100.00;100828.47;5100110;28;20506;-59
2022/12/27 05:44:38;;;;;;;16.03;10.80;;;;;;;3.77;100.00;100835.81;5098583;28;20459;-59
2022/12/27 05:47:05;;;;;;;16.63;10.90;;;;;;;3.78;100.00;100831.38;5100137;28;20484;-59
2022/12/27 05:49:32;;;;;;;14.60;10.60;;;;;;;3.84;100.00;100848.72;5101022;28;20463;-59
2022/12/27 05:51:59;;;;;;;16.33;9.57;;;;;;;3.92;100.00;100849.13;5099800;28;20483;-59
2022/12/27 05:54:26;;;;;;;25.43;10.40;;;;;;;3.98;100.00;100843.53;5099891;28;20452;-60
2022/12/27 05:56:52;;;;;;;17.03;11.43;;;;;;;3.96;100.00;100846.25;5099558;28;20483;-59
2022/12/27 05:59:19;;;;;;;16.40;11.77;;;;;;;3.99;100.00;100852.31;5100212;28;20493;-59
2022/12/27 06:01:47;;;;;;;18.37;11.30;;;;;;;4.05;100.00;100851.97;5099605;28;20478;-59
2022/12/27 06:04:14;;;;;;;17.10;11.37;;;;;;;4.07;100.00;100869.47;5100481;28;20474;-60
2022/12/27 06:06:41;;;;;;;15.43;11.20;;;;;;;4.08;100.00;100876.47;5099406;28;20472;-60
2022/12/27 06:09:08;;;;;;;13.00;10.27;;;;;;;4.06;100.00;100881.00;5100438;28;20528;-60
2022/12/27 06:11:35;;;;;;;16.83;11.83;;;;;;;4.01;100.00;100880.41;5098868;28;20475;-60
2022/12/27 06:14:01;;;;;;;14.00;11.77;;;;;;;4.05;100.00;100879.28;5100373;28;20466;-60
2022/12/27 06:16:28;;;;;;;16.80;12.83;;;;;;;4.05;100.00;100876.66;5099781;28;20479;-60
2022/12/27 06:18:56;;;;;;;14.77;11.63;;;;;;;4.04;100.00;100882.84;5101441;28;20478;-59
2022/12/27 06:21:23;;;;;;;13.40;11.73;;;;;;;4.11;100.00;100889.56;5098291;28;20472;-60
2022/12/27 06:23:50;;;;;;;18.00;12.20;;;;;;;4.13;100.00;100890.31;5099958;28;20502;-59
2022/12/27 06:26:19;;;;;;;17.60;11.60;;;;;;;4.11;100.00;100892.19;5099445;28;20468;-59
2022/12/27 06:28:48;;;;;;;19.70;11.63;;;;;;;4.18;100.00;100898.00;5100097;28;20834;-59
2022/12/27 06:31:15;;;;;;;21.30;11.87;;;;;;;4.09;100.00;100891.41;5072101;28;20504;-59
2022/12/27 06:33:42;;;;;;;13.17;11.37;;;;;;;4.21;100.00;100894.34;5096984;28;20447;-60
2022/12/27 06:36:12;;;;;;;15.63;11.57;;;;;;;4.20;100.00;100901.44;5099551;28;20913;-60
2022/12/27 06:38:39;;;;;;;26.40;13.20;;;;;;;4.22;100.00;100891.59;5099228;28;20487;-60
2022/12/27 06:41:08;;;;;;;20.60;14.13;;;;;;;4.27;100.00;100897.50;5098389;28;20479;-59
2022/12/27 06:43:35;;;;;;;23.20;11.40;;;;;;;4.31;100.00;100906.97;5097952;28;20487;-60
2022/12/27 06:46:03;;;;;;;17.70;11.37;;;;;;;4.26;100.00;100887.00;5099246;28;20499;-60
2022/12/27 06:48:29;;;;;;;21.10;12.03;;;;;;;4.24;100.00;100904.75;5099657;28;20446;-60
2022/12/27 06:50:56;;;;;;;16.53;11.63;;;;;;;4.36;100.00;100895.25;5098003;28;20479;-59
2022/12/27 06:53:25;;;;;;;21.73;12.17;;;;;;;4.32;100.00;100902.53;5099932;28;20487;-60
2022/12/27 06:55:51;;;;;;;12.90;11.47;;;;;;;4.34;100.00;100911.25;5099225;28;20474;-60
2022/12/27 06:58:18;;;;;;;13.13;11.63;;;;;;;4.36;100.00;100916.44;5099852;28;20485;-60
2022/12/27 07:00:45;;;;;;;17.83;11.73;;;;;;;4.45;100.00;100927.41;5099822;28;20495;-59
2022/12/27 07:03:11;;;;;;;14.00;11.03;;;;;;;4.41;100.00;100933.81;5105912;28;20788;-59
2022/12/27 07:05:39;;;;;;;17.67;11.10;;;;;;;4.41;100.00;100936.47;5101994;28;20488;-59
2022/12/27 07:08:06;;;;;;;17.93;10.97;;;;;;;4.40;100.00;100932.09;5104690;28;20488;-60
2022/12/27 07:10:34;;;;;;;26.23;13.07;;;;;;;4.50;100.00;100935.94;5105377;27;20482;-59
2022/12/27 07:13:00;;;;;;;19.00;12.70;;;;;;;4.46;100.00;100936.19;5105470;28;20459;-59
2022/12/27 07:15:27;;;;;;;18.37;11.13;;;;;;;4.60;100.00;100940.72;5106221;28;20443;-59
2022/12/27 07:17:54;;;;;;;15.60;11.70;;;;;;;4.46;100.00;100937.06;5104804;28;20454;-59
2022/12/27 07:20:21;;;;;;;12.77;10.67;;;;;;;4.51;100.00;100935.00;5104098;28;20507;-59
2022/12/27 07:22:47;;;;;;;18.23;12.10;;;;;;;4.58;100.00;100942.59;5106473;28;20674;-59
2022/12/27 07:25:15;;;;;;;12.47;11.17;;;;;;;4.51;100.00;100948.25;5103748;28;20861;-59
2022/12/27 07:27:44;;;;;;;17.90;11.93;;;;;;;4.56;100.00;100944.50;5102252;28;20451;-59
2022/12/27 07:30:11;;;;;;;14.67;10.50;;;;;;;4.62;100.00;100949.47;5105493;27;20439;-59
2022/12/27 07:32:37;;;;;;;14.03;10.20;;;;;;;4.70;100.00;100947.22;5106257;28;20446;-59
2022/12/27 07:35:05;;;;;;;16.93;9.90;;;;;;;4.67;100.00;100961.50;5105290;28;20439;-59
2022/12/27 07:37:32;;;;;;;15.93;9.50;;;;;;;4.72;100.00;100954.16;5102546;28;20479;-59
2022/12/27 07:39:58;;;;;;;13.73;8.97;;;;;;;4.65;100.00;100971.31;5105915;28;20489;-59
2022/12/27 07:42:25;;;;;;;15.30;8.27;;;;;;;4.73;100.00;100968.25;5104097;28;20479;-59
2022/12/27 07:44:53;;;;;;;14.67;8.63;;;;;;;4.82;100.00;100972.16;5083514;28;20464;-59
2022/12/27 07:47:20;;;;;;;15.57;8.30;;;;;;;4.72;100.00;100971.81;5084107;28;20527;-59
2022/12/27 07:49:46;;;;;;;13.60;8.33;;;;;;;4.70;100.00;100979.00;5088055;28;20452;-59
2022/12/27 07:52:15;;;;;;;14.83;8.73;;;;;;;4.71;100.00;100986.88;5085179;28;20484;-59
2022/12/27 07:54:41;;;;;;;11.93;8.53;;;;;;;4.82;100.00;100988.91;5098191;28;20459;-59
2022/12/27 07:57:08;;;;;;;10.43;8.53;;;;;;;4.84;100.00;100992.34;5093360;28;20482;-59
2022/12/27 07:59:35;;;;;;;17.40;8.30;;;;;;;4.79;100.00;100993.53;5086011;28;20587;-59
2022/12/27 08:02:05;;;;;;;14.03;8.27;;;;;;;4.80;100.00;101003.19;5087595;28;20479;-59
2022/12/27 08:04:34;;;;;;;10.70;7.87;;;;;;;4.78;100.00;101007.72;5085605;28;20448;-59
2022/12/27 08:07:02;;;;;;;11.87;8.33;;;;;;;4.82;100.00;101010.09;5090798;28;20484;-58
2022/12/27 08:09:33;;;;;;;12.23;8.53;;;;;;;4.86;100.00;101001.06;5086887;28;20444;-60
2022/12/27 08:12:00;;;;;;;15.80;8.00;;;;;;;4.65;100.00;101002.22;5099771;28;20482;-59
2022/12/27 08:14:26;;;;;;;11.93;7.53;;;;;;;4.71;100.00;100997.47;5094050;28;20468;-59
2022/12/27 08:16:53;;;;;;;15.53;8.93;;;;;;;4.80;100.00;101008.50;5084628;28;20472;-59
2022/12/27 08:19:21;;;;;;;11.60;7.50;;;;;;;4.86;100.00;101019.63;5082169;28;20471;-59
2022/12/27 08:21:48;;;;;;;24.83;9.00;;;;;;;4.88;100.00;101009.78;5084942;28;20479;-59
2022/12/27 08:24:14;;;;;;;13.67;7.03;;;;;;;4.98;100.00;101012.78;5087669;28;20456;-59
2022/12/27 08:26:41;;;;;;;9.97;7.90;;;;;;;4.85;100.00;101014.41;5080745;28;20472;-59
2022/12/27 08:29:08;;;;;;;13.37;7.97;;;;;;;4.93;100.00;101000.72;5094100;28;20445;-59
2022/12/27 08:31:34;;;;;;;11.20;6.73;;;;;;;4.94;100.00;101008.56;5086948;28;21008;-59
2022/12/27 08:34:02;;;;;;;13.90;7.33;;;;;;;4.72;100.00;101006.25;5083153;28;20451;-59
2022/12/27 08:36:30;;;;;;;8.80;7.13;;;;;;;4.76;100.00;100999.03;5083320;28;20484;-60
2022/12/27 08:38:56;;;;;;;14.10;7.63;;;;;;;4.82;100.00;101009.25;5084709;28;20499;-59
2022/12/27 08:41:23;;;;;;;15.60;7.50;;;;;;;4.91;100.00;101014.03;5079802;28;20472;-59
2022/12/27 08:43:50;;;;;;;15.03;8.03;;;;;;;4.72;100.00;101015.06;5085332;28;20460;-59
2022/12/27 08:46:17;;;;;;;13.00;7.27;;;;;;;4.98;100.00;101004.84;5090093;28;20476;-59
2022/12/27 08:48:44;;;;;;;13.80;7.80;;;;;;;4.69;100.00;101014.38;5085477;28;20925;-59
2022/12/27 08:51:11;;;;;;;17.77;8.83;;;;;;;4.94;100.00;101019.19;5088164;28;20530;-59
2022/12/27 08:53:39;;;;;;;15.57;8.00;;;;;;;4.87;100.00;101012.50;5086175;28;20460;-60
2022/12/27 08:56:06;;;;;;;12.40;7.43;;;;;;;4.83;100.00;101010.97;5093952;28;20483;-59
2022/12/27 08:58:33;;;;;;;15.10;9.27;;;;;;;5.05;100.00;101014.16;5082715;28;20444;-59
2022/12/27 09:01:05;;;;;;;14.07;7.70;;;;;;;5.18;100.00;101022.25;5078812;28;20481;-59
2022/12/27 09:03:32;;;;;;;11.47;7.20;;;;;;;5.17;100.00;101031.13;5081301;28;20543;-59
2022/12/27 09:06:07;;;;;;;10.17;7.90;;;;;;;5.23;100.00;101028.13;5093002;28;20476;-59
2022/12/27 09:08:34;;;;;;;19.40;8.43;;;;;;;5.06;100.00;101033.53;5082446;28;20451;-59
2022/12/27 09:11:11;;;;;;;14.07;8.00;;;;;;;5.08;100.00;101043.09;5080165;28;20475;-59
2022/12/27 09:13:38;;;;;;;14.13;8.40;;;;;;;5.02;100.00;101046.09;5076623;28;20547;-60
2022/12/27 09:16:06;;;;;;;14.17;8.37;;;;;;;4.90;100.00;101030.91;5076627;28;20610;-60
2022/12/27 09:18:33;;;;;;;13.13;8.90;;;;;;;4.92;100.00;101039.59;5072173;28;20451;-60
2022/12/27 09:21:07;;;;;;;16.40;8.80;;;;;;;4.88;100.00;101040.72;5084175;28;20480;-66
2022/12/27 09:23:34;;;;;;;14.73;8.17;;;;;;;5.00;100.00;101053.28;5087112;28;20475;-66
2022/12/27 09:26:04;;;;;;;12.30;7.80;;;;;;;5.08;100.00;101051.06;5086627;28;20482;-63
2022/12/27 09:28:32;;;;;;;11.50;8.40;;;;;;;5.11;100.00;101055.34;5090392;28;20498;-65
2022/12/27 09:30:59;;;;;;;21.67;9.80;;;;;;;5.12;100.00;101053.53;5086107;28;20483;-65
2022/12/27 09:33:27;;;;;;;13.30;9.47;;;;;;;5.16;100.00;101055.09;5087854;28;20463;-66
2022/12/27 09:35:53;;;;;;;12.90;8.83;;;;;;;5.12;100.00;101070.31;5083753;28;20500;-65
2022/12/27 09:38:20;;;;;;;12.80;10.03;;;;;;;5.20;100.00;101068.06;5074043;28;20496;-65
2022/12/27 09:40:53;;;;;;;11.40;9.40;;;;;;;5.55;98.90;101073.16;5064014;28;20523;-65
2022/12/27 09:43:24;;;;;;;13.07;8.80;;;;;;;5.32;99.30;101073.63;5066442;28;20465;-66
2022/12/27 09:45:55;;;;;;;15.33;9.73;;;;;;;5.51;99.46;101066.34;5072656;28;20480;-66
2022/12/27 09:48:27;;;;;;;14.10;9.93;;;;;;;5.62;98.30;101081.63;5064137;28;20472;-66
2022/12/27 09:50:56;;;;;;;15.30;9.60;;;;;;;5.60;98.33;101072.91;5074002;28;20807;-66
2022/12/27 09:53:26;;;;;;;13.27;9.23;;;;;;;5.64;98.00;101075.31;5061150;28;20481;-66
2022/12/27 09:55:54;;;;;;;17.23;10.00;;;;;;;5.54;98.56;101066.19;5060890;28;20915;-65
2022/12/27 09:58:32;;;;;;;16.43;10.10;;;;;;;5.55;97.98;101070.50;5079532;28;20440;-65
2022/12/27 10:01:01;;;;;;;14.33;8.80;;;;;;;5.53;98.11;101068.91;5069529;28;20476;-65
2022/12/27 10:03:28;;;;;;;12.23;9.20;;;;;;;5.35;99.21;101070.81;5069927;28;20545;-65
2022/12/27 10:05:59;;;;;;;15.60;7.73;;;;;;;5.45;99.24;101083.47;5075237;28;20998;-65
2022/12/27 10:08:37;;;;;;;14.83;8.33;;;;;;;5.57;98.97;101084.56;5062932;28;20915;-65
2022/12/27 10:11:34;;;;;;;19.07;8.83;;;;;;;5.22;99.44;101076.78;5069259;28;20471;-65
2022/12/27 10:13:59;;;;;;;14.47;8.03;;;;;;;5.17;100.00;101081.50;5072800;28;20453;-65
2022/12/27 10:16:31;;;;;;;13.20;8.83;;;;;;;5.37;100.00;101091.00;5074058;28;20476;-65
2022/12/27 10:19:10;;;;;;;15.80;9.30;;;;;;;5.37;99.66;101079.53;5068251;28;20508;-65
2022/12/27 10:21:42;;;;;;;16.73;8.50;;;;;;;5.38;99.77;101086.53;5061743;28;20472;-65
2022/12/27 10:24:17;;;;;;;14.30;9.10;;;;;;;5.55;99.53;101088.25;5065251;28;20460;-65
2022/12/27 10:26:44;;;;;;;13.63;8.33;;;;;;;5.56;99.29;101089.97;5077387;28;20494;-65
2022/12/27 10:29:17;;;;;;;14.87;8.77;;;;;;;5.59;99.65;101084.47;5073437;28;20441;-65
2022/12/27 10:31:45;;;;;;;10.33;8.47;;;;;;;5.73;98.26;101081.00;5077489;28;20507;-65
2022/12/27 10:34:15;;;;;;;11.53;9.37;;;;;;;5.84;97.35;101086.56;5078685;28;20455;-65
2022/12/27 10:36:43;;;;;;;13.60;9.10;;;;;;;6.06;96.21;101093.28;5078351;28;20937;-65
2022/12/27 10:39:16;;;;;;;12.50;8.60;;;;;;;6.24;95.12;101101.97;5071158;28;20480;-65
2022/12/27 10:41:50;;;;;;;12.47;8.53;;;;;;;6.45;93.90;101083.88;5087823;28;20488;-66
2022/12/27 10:44:17;;;;;;;16.00;9.50;;;;;;;6.58;92.47;101095.47;5092206;28;20460;-65
2022/12/27 10:46:50;;;;;;;23.27;10.53;;;;;;;6.24;92.98;101088.69;5095670;28;20501;-66
2022/12/27 10:49:23;;;;;;;12.60;9.90;;;;;;;6.37;93.92;101090.53;5098355;28;20508;-65
2022/12/27 10:51:50;;;;;;;15.40;10.10;;;;;;;6.73;90.42;101083.03;5096779;28;20483;-65
2022/12/27 10:54:22;;;;;;;25.30;10.97;;;;;;;6.76;89.58;101088.16;5097946;28;20458;-65
2022/12/27 10:56:49;;;;;;;11.50;10.43;;;;;;;6.94;89.80;101087.03;5091861;28;20829;-65
2022/12/27 10:59:18;;;;;;;18.53;8.67;;;;;;;7.02;88.63;101081.22;5099154;28;20474;-65
2022/12/27 11:01:50;;;;;;;14.67;8.83;;;;;;;7.18;88.76;101089.06;5092290;28;20555;-65
2022/12/27 11:04:19;;;;;;;13.57;9.03;;;;;;;7.09;87.98;101094.97;5094734;28;20456;-65
2022/12/27 11:06:47;;;;;;;12.10;9.00;;;;;;;7.12;88.40;101092.13;5095109;28;20476;-65
2022/12/27 11:09:30;;;;;;;16.80;9.97;;;;;;;7.00;88.79;101092.91;5079901;28;20425;-65
2022/12/27 11:12:16;;;;;;;11.10;9.93;;;;;;;7.13;87.02;101101.78;5064983;28;20853;-65
2022/12/27 11:14:54;;;;;;;15.57;9.63;;;;;;;6.62;89.64;101102.31;5098816;28;20888;-65
2022/12/27 11:17:23;;;;;;;14.97;10.13;;;;;;;6.57;90.78;101101.72;5098269;28;20480;-65
2022/12/27 11:19:50;;;;;;;13.10;10.93;;;;;;;6.52;90.71;101102.00;5099210;28;20440;-65
2022/12/27 11:22:17;;;;;;;14.03;9.90;;;;;;;6.48;91.20;101100.50;5084682;28;20480;-68
2022/12/27 11:24:45;;;;;;;13.87;10.87;;;;;;;6.37;91.62;101095.84;5090830;28;20447;-77
2022/12/27 11:27:21;;;;;;;12.47;9.47;;;;;;;6.54;91.45;101100.09;5097434;28;20497;-66
2022/12/27 11:29:48;;;;;;;13.97;10.57;;;;;;;7.01;89.58;101108.72;5095507;28;20448;-68
2022/12/27 11:32:14;;;;;;;17.50;12.10;;;;;;;6.65;89.99;101115.41;5095394;28;20487;-62
2022/12/27 11:34:45;;;;;;;14.63;11.23;;;;;;;7.31;88.08;101097.97;5086505;28;20538;-64
2022/12/27 11:37:14;;;;;;;17.67;12.60;;;;;;;7.11;88.30;101112.53;5094581;28;20939;-60
2022/12/27 11:39:43;;;;;;;17.23;13.00;;;;;;;6.72;89.00;101115.88;5084908;28;20491;-71
2022/12/27 11:42:18;;;;;;;17.50;14.37;;;;;;;6.48;90.57;101124.41;5092113;28;20742;-71
2022/12/27 11:44:48;;;;;;;18.30;12.90;;;;;;;6.33;92.02;101123.50;5097864;28;20483;-71
2022/12/27 11:47:25;;;;;;;19.13;13.40;;;;;;;6.40;91.53;101122.19;5098503;28;20483;-71
2022/12/27 11:49:56;;;;;;;19.03;15.03;;;;;;;7.22;88.61;101113.66;5100061;28;20462;-71
2022/12/27 11:52:43;;;;;;;14.60;13.07;;;;;;;7.09;88.23;101118.91;5102659;28;20472;-71
2022/12/27 11:55:27;;;;;;;19.23;13.40;;;;;;;7.01;88.58;101108.72;5062555;28;20460;-71
2022/12/27 11:58:23;;;;;;;16.53;12.97;;;;;;;7.41;87.20;101108.00;5083076;28;20490;-71
2022/12/27 12:00:57;;;;;;;22.13;13.37;;;;;;;7.32;85.96;101098.81;5053932;28;20481;-71
2022/12/27 12:03:54;;;;;;;15.97;11.60;;;;;;;7.04;87.76;101108.53;5075945;28;20465;-69
2022/12/27 12:06:25;;;;;;;18.60;13.10;;;;;;;7.02;87.44;101101.63;5097765;28;20472;-71
2022/12/27 12:09:17;;;;;;;21.70;14.13;;;;;;;7.06;88.17;101106.63;5097998;28;20455;-72
2022/12/27 12:11:55;;;;;;;21.63;12.80;;;;;;;7.47;86.93;101097.81;5097843;28;20476;-71
2022/12/27 12:15:01;;;;;;;15.53;11.17;;;;;;;7.32;86.18;101086.34;5099287;28;20481;-71
2022/12/27 12:17:53;;;;;;;13.30;11.60;;;;;;;6.93;88.36;101097.75;5100835;28;20480;-71
2022/12/27 12:20:46;;;;;;;16.17;12.27;;;;;;;6.60;90.97;101093.56;5097414;28;20447;-71
2022/12/27 12:23:22;;;;;;;19.37;13.47;;;;;;;7.71;87.11;101084.72;5100355;28;20451;-71
2022/12/27 12:26:22;;;;;;;19.20;12.90;;;;;;;7.47;86.64;101092.50;5102209;28;20478;-71
2022/12/27 12:29:18;;;;;;;14.10;11.83;;;;;;;7.14;87.61;101088.41;5059947;28;20496;-70
2022/12/27 12:32:09;;;;;;;17.33;11.53;;;;;;;6.97;89.12;101093.94;5058016;28;20465;-70
2022/12/27 12:35:15;;;;;;;14.23;12.53;;;;;;;8.14;85.57;101077.47;5058972;28;20465;-69
2022/12/27 12:38:04;;;;;;;19.57;12.53;;;;;;;7.35;87.04;101072.03;5008869;28;20479;-70
2022/12/27 12:40:51;;;;;;;20.80;13.20;;;;;;;7.14;88.76;101074.25;5037483;28;20533;-70
2022/12/27 12:43:31;;;;;;;21.77;12.27;;;;;;;8.19;84.97;101072.66;5057297;28;20493;-69
2022/12/27 12:46:04;;;;;;;17.70;12.67;;;;;;;8.18;82.14;101068.31;5057215;28;20465;-70
2022/12/27 12:48:57;;;;;;;20.20;11.60;;;;;;;8.52;81.01;101074.00;5046528;28;20447;-70
2022/12/27 12:51:43;;;;;;;15.83;11.93;;;;;;;8.47;80.55;101068.97;5054848;28;20497;-70
2022/12/27 12:54:23;;;;;;;12.03;10.77;;;;;;;8.16;82.63;101071.09;5043482;28;20450;-70
2022/12/27 12:57:02;;;;;;;14.40;10.00;;;;;;;7.74;83.79;101059.69;5058355;28;20555;-69
2022/12/27 12:59:52;;;;;;;16.40;10.07;;;;;;;7.59;85.17;101061.59;5073521;28;20452;-70
2022/12/27 13:02:32;;;;;;;17.10;11.33;;;;;;;7.22;87.36;101065.78;5099152;28;20483;-70
2022/12/27 13:05:11;;;;;;;19.10;11.83;;;;;;;7.26;88.03;101070.81;5096504;28;20565;-70
2022/12/27 13:07:51;;;;;;;16.03;9.47;;;;;;;7.68;86.18;101057.47;5090130;28;20459;-70
2022/12/27 13:10:48;;;;;;;12.30;10.40;;;;;;;7.50;86.39;101064.84;5101251;28;20474;-70
2022/12/27 13:13:23;;;;;;;11.60;10.40;;;;;;;7.35;88.06;101059.56;5094695;28;20514;-70